sensor_id;sensor_type;location;lat;lon;timestamp;P1;durP1;ratioP1;P2;durP2;ratioP2
60372;SDS011;46216;52.220;5.134;2022-08-01T00:00:31;8.73;;;6.68;;
60372;SDS011;46216;52.220;5.134;2022-08-01T00:02:56;8.55;;;6.18;;
60372;SDS011;46216;52.220;5.134;2022-08-01T00:05:22;9.82;;;6.68;;
60372;SDS011;46216;52.220;5.134;2022-08-01T00:07:47;8.40;;;6.07;;
60372;SDS011;46216;52.220;5.134;2022-08-01T00:10:14;9.50;;;6.65;;
60372;SDS011;46216;52.220;5.134;2022-08-01T00:12:41;9.65;;;7.07;;
60372;SDS011;46216;52.220;5.134;2022-08-01T00:15:08;10.93;;;6.80;;
60372;SDS011;46216;52.220;5.134;2022-08-01T00:17:35;9.90;;;7.05;;
60372;SDS011;46216;52.220;5.134;2022-08-01T00:20:01;9.85;;;6.97;;
60372;SDS011;46216;52.220;5.134;2022-08-01T00:22:28;8.98;;;6.90;;
60372;SDS011;46216;52.220;5.134;2022-08-01T00:24:53;9.70;;;7.10;;
60372;SDS011;46216;52.220;5.134;2022-08-01T00:27:19;9.63;;;6.68;;
60372;SDS011;46216;52.220;5.134;2022-08-01T00:29:44;10.27;;;6.97;;
60372;SDS011;46216;52.220;5.134;2022-08-01T00:32:09;11.77;;;7.32;;
60372;SDS011;46216;52.220;5.134;2022-08-01T00:34:34;12.15;;;7.55;;
60372;SDS011;46216;52.220;5.134;2022-08-01T00:37:00;10.38;;;6.82;;
60372;SDS011;46216;52.220;5.134;2022-08-01T00:39:25;11.82;;;6.95;;
60372;SDS011;46216;52.220;5.134;2022-08-01T00:41:50;10.82;;;7.55;;
60372;SDS011;46216;52.220;5.134;2022-08-01T00:44:16;11.60;;;7.53;;
60372;SDS011;46216;52.220;5.134;2022-08-01T00:46:41;11.30;;;7.80;;
60372;SDS011;46216;52.220;5.134;2022-08-01T00:49:06;13.77;;;8.27;;
60372;SDS011;46216;52.220;5.134;2022-08-01T00:51:32;13.05;;;8.77;;
60372;SDS011;46216;52.220;5.134;2022-08-01T00:53:58;13.30;;;8.88;;
60372;SDS011;46216;52.220;5.134;2022-08-01T00:56:25;14.63;;;9.50;;
60372;SDS011;46216;52.220;5.134;2022-08-01T00:58:51;15.52;;;9.30;;
60372;SDS011;46216;52.220;5.134;2022-08-01T01:01:17;16.90;;;9.95;;
60372;SDS011;46216;52.220;5.134;2022-08-01T01:03:45;14.00;;;9.45;;
60372;SDS011;46216;52.220;5.134;2022-08-01T01:06:19;17.42;;;9.80;;
60372;SDS011;46216;52.220;5.134;2022-08-01T01:09:11;17.90;;;9.70;;
60372;SDS011;46216;52.220;5.134;2022-08-01T01:11:51;16.02;;;9.55;;
60372;SDS011;46216;52.220;5.134;2022-08-01T01:17:17;14.40;;;8.93;;
60372;SDS011;46216;52.220;5.134;2022-08-01T01:19:51;15.32;;;9.05;;
60372;SDS011;46216;52.220;5.134;2022-08-01T01:22:22;13.25;;;8.93;;
60372;SDS011;46216;52.220;5.134;2022-08-01T01:25:03;15.10;;;8.25;;
60372;SDS011;46216;52.220;5.134;2022-08-01T01:27:51;10.70;;;7.50;;
60372;SDS011;46216;52.220;5.134;2022-08-01T01:30:28;11.38;;;7.28;;
60372;SDS011;46216;52.220;5.134;2022-08-01T01:32:55;9.02;;;6.28;;
60372;SDS011;46216;52.220;5.134;2022-08-01T01:35:25;11.05;;;7.03;;
60372;SDS011;46216;52.220;5.134;2022-08-01T01:37:57;11.63;;;7.65;;
60372;SDS011;46216;52.220;5.134;2022-08-01T01:40:26;10.70;;;7.10;;
60372;SDS011;46216;52.220;5.134;2022-08-01T01:42:54;11.00;;;7.85;;
60372;SDS011;46216;52.220;5.134;2022-08-01T01:45:23;12.27;;;7.78;;
60372;SDS011;46216;52.220;5.134;2022-08-01T01:47:48;11.30;;;7.82;;
60372;SDS011;46216;52.220;5.134;2022-08-01T01:50:14;13.73;;;7.82;;
60372;SDS011;46216;52.220;5.134;2022-08-01T01:52:40;11.82;;;7.88;;
60372;SDS011;46216;52.220;5.134;2022-08-01T01:55:08;12.05;;;8.18;;
60372;SDS011;46216;52.220;5.134;2022-08-01T01:57:38;11.55;;;7.70;;
60372;SDS011;46216;52.220;5.134;2022-08-01T02:00:05;8.60;;;6.82;;
60372;SDS011;46216;52.220;5.134;2022-08-01T02:02:33;14.00;;;7.80;;
60372;SDS011;46216;52.220;5.134;2022-08-01T02:05:01;9.45;;;7.50;;
60372;SDS011;46216;52.220;5.134;2022-08-01T02:07:27;10.98;;;7.32;;
60372;SDS011;46216;52.220;5.134;2022-08-01T02:09:53;9.45;;;6.60;;
60372;SDS011;46216;52.220;5.134;2022-08-01T02:12:20;9.55;;;6.93;;
60372;SDS011;46216;52.220;5.134;2022-08-01T02:14:46;9.30;;;7.15;;
60372;SDS011;46216;52.220;5.134;2022-08-01T02:17:15;10.15;;;7.10;;
60372;SDS011;46216;52.220;5.134;2022-08-01T02:19:43;9.35;;;6.75;;
60372;SDS011;46216;52.220;5.134;2022-08-01T02:22:10;9.93;;;6.93;;
60372;SDS011;46216;52.220;5.134;2022-08-01T02:24:59;8.77;;;6.78;;
60372;SDS011;46216;52.220;5.134;2022-08-01T02:27:33;9.00;;;6.03;;
60372;SDS011;46216;52.220;5.134;2022-08-01T02:30:05;9.65;;;6.32;;
60372;SDS011;46216;52.220;5.134;2022-08-01T02:32:38;7.60;;;6.10;;
60372;SDS011;46216;52.220;5.134;2022-08-01T02:35:09;7.28;;;6.13;;
60372;SDS011;46216;52.220;5.134;2022-08-01T02:37:38;10.68;;;6.13;;
60372;SDS011;46216;52.220;5.134;2022-08-01T02:40:04;8.30;;;6.97;;
60372;SDS011;46216;52.220;5.134;2022-08-01T02:42:32;8.52;;;6.63;;
60372;SDS011;46216;52.220;5.134;2022-08-01T02:45:02;9.35;;;6.65;;
60372;SDS011;46216;52.220;5.134;2022-08-01T02:47:29;7.10;;;6.40;;
60372;SDS011;46216;52.220;5.134;2022-08-01T02:49:57;14.25;;;6.43;;
60372;SDS011;46216;52.220;5.134;2022-08-01T02:52:24;8.95;;;6.95;;
60372;SDS011;46216;52.220;5.134;2022-08-01T02:54:51;9.13;;;7.10;;
60372;SDS011;46216;52.220;5.134;2022-08-01T02:57:20;10.30;;;7.38;;
60372;SDS011;46216;52.220;5.134;2022-08-01T02:59:46;11.05;;;7.32;;
60372;SDS011;46216;52.220;5.134;2022-08-01T03:02:14;11.95;;;7.28;;
60372;SDS011;46216;52.220;5.134;2022-08-01T03:04:41;10.77;;;7.20;;
60372;SDS011;46216;52.220;5.134;2022-08-01T03:07:08;10.63;;;8.40;;
60372;SDS011;46216;52.220;5.134;2022-08-01T03:09:49;9.77;;;7.60;;
60372;SDS011;46216;52.220;5.134;2022-08-01T03:12:17;10.30;;;7.32;;
60372;SDS011;46216;52.220;5.134;2022-08-01T03:14:45;10.27;;;7.53;;
60372;SDS011;46216;52.220;5.134;2022-08-01T03:17:12;8.98;;;7.88;;
60372;SDS011;46216;52.220;5.134;2022-08-01T03:19:39;10.13;;;7.93;;
60372;SDS011;46216;52.220;5.134;2022-08-01T03:22:06;12.68;;;8.48;;
60372;SDS011;46216;52.220;5.134;2022-08-01T03:24:36;13.30;;;8.40;;
60372;SDS011;46216;52.220;5.134;2022-08-01T03:27:04;13.48;;;8.80;;
60372;SDS011;46216;52.220;5.134;2022-08-01T03:29:30;11.85;;;8.75;;
60372;SDS011;46216;52.220;5.134;2022-08-01T03:32:00;11.93;;;9.35;;
60372;SDS011;46216;52.220;5.134;2022-08-01T03:34:27;10.98;;;9.40;;
60372;SDS011;46216;52.220;5.134;2022-08-01T03:36:58;11.65;;;9.30;;
60372;SDS011;46216;52.220;5.134;2022-08-01T03:39:50;13.30;;;9.85;;
60372;SDS011;46216;52.220;5.134;2022-08-01T03:42:23;11.60;;;9.95;;
60372;SDS011;46216;52.220;5.134;2022-08-01T03:44:55;12.77;;;9.55;;
60372;SDS011;46216;52.220;5.134;2022-08-01T03:47:29;11.52;;;9.52;;
60372;SDS011;46216;52.220;5.134;2022-08-01T03:49:56;14.20;;;9.90;;
60372;SDS011;46216;52.220;5.134;2022-08-01T03:52:23;11.65;;;9.50;;
60372;SDS011;46216;52.220;5.134;2022-08-01T03:54:50;14.23;;;9.00;;
60372;SDS011;46216;52.220;5.134;2022-08-01T03:57:19;14.07;;;8.70;;
60372;SDS011;46216;52.220;5.134;2022-08-01T03:59:45;11.18;;;8.18;;
60372;SDS011;46216;52.220;5.134;2022-08-01T04:02:11;9.45;;;7.05;;
60372;SDS011;46216;52.220;5.134;2022-08-01T04:04:39;9.07;;;6.70;;
60372;SDS011;46216;52.220;5.134;2022-08-01T04:07:05;7.78;;;6.07;;
60372;SDS011;46216;52.220;5.134;2022-08-01T04:09:45;8.50;;;5.90;;
60372;SDS011;46216;52.220;5.134;2022-08-01T04:12:10;7.82;;;5.90;;
60372;SDS011;46216;52.220;5.134;2022-08-01T04:14:36;7.63;;;5.32;;
60372;SDS011;46216;52.220;5.134;2022-08-01T04:17:01;8.68;;;5.63;;
60372;SDS011;46216;52.220;5.134;2022-08-01T04:19:26;6.22;;;5.03;;
60372;SDS011;46216;52.220;5.134;2022-08-01T04:21:52;6.50;;;4.90;;
60372;SDS011;46216;52.220;5.134;2022-08-01T04:24:17;6.35;;;4.50;;
60372;SDS011;46216;52.220;5.134;2022-08-01T04:26:45;6.47;;;4.72;;
60372;SDS011;46216;52.220;5.134;2022-08-01T04:29:12;5.28;;;4.72;;
60372;SDS011;46216;52.220;5.134;2022-08-01T04:31:42;6.43;;;4.78;;
60372;SDS011;46216;52.220;5.134;2022-08-01T04:34:10;5.65;;;4.50;;
60372;SDS011;46216;52.220;5.134;2022-08-01T04:36:38;5.10;;;3.80;;
60372;SDS011;46216;52.220;5.134;2022-08-01T04:39:07;7.38;;;3.58;;
60372;SDS011;46216;52.220;5.134;2022-08-01T04:41:34;4.97;;;3.60;;
60372;SDS011;46216;52.220;5.134;2022-08-01T04:44:01;4.68;;;3.08;;
60372;SDS011;46216;52.220;5.134;2022-08-01T04:46:28;6.20;;;3.10;;
60372;SDS011;46216;52.220;5.134;2022-08-01T04:48:54;7.20;;;3.53;;
60372;SDS011;46216;52.220;5.134;2022-08-01T04:51:21;5.18;;;3.00;;
60372;SDS011;46216;52.220;5.134;2022-08-01T04:53:47;4.10;;;2.80;;
60372;SDS011;46216;52.220;5.134;2022-08-01T04:56:15;7.38;;;3.30;;
60372;SDS011;46216;52.220;5.134;2022-08-01T04:58:41;4.95;;;3.35;;
60372;SDS011;46216;52.220;5.134;2022-08-01T05:01:09;7.75;;;3.28;;
60372;SDS011;46216;52.220;5.134;2022-08-01T05:03:35;4.55;;;3.13;;
60372;SDS011;46216;52.220;5.134;2022-08-01T05:06:00;5.38;;;3.40;;
60372;SDS011;46216;52.220;5.134;2022-08-01T05:08:26;11.07;;;3.47;;
60372;SDS011;46216;52.220;5.134;2022-08-01T05:10:52;6.68;;;3.55;;
60372;SDS011;46216;52.220;5.134;2022-08-01T05:13:17;7.22;;;3.83;;
60372;SDS011;46216;52.220;5.134;2022-08-01T05:15:43;6.75;;;3.90;;
60372;SDS011;46216;52.220;5.134;2022-08-01T05:18:09;10.15;;;4.25;;
60372;SDS011;46216;52.220;5.134;2022-08-01T05:20:34;9.73;;;4.13;;
60372;SDS011;46216;52.220;5.134;2022-08-01T05:22:59;8.75;;;4.45;;
60372;SDS011;46216;52.220;5.134;2022-08-01T05:25:25;8.70;;;4.72;;
60372;SDS011;46216;52.220;5.134;2022-08-01T05:27:50;9.52;;;4.85;;
60372;SDS011;46216;52.220;5.134;2022-08-01T05:30:15;10.73;;;5.00;;
60372;SDS011;46216;52.220;5.134;2022-08-01T05:32:41;16.52;;;5.38;;
60372;SDS011;46216;52.220;5.134;2022-08-01T05:35:07;11.10;;;5.38;;
60372;SDS011;46216;52.220;5.134;2022-08-01T05:37:33;9.00;;;5.88;;
60372;SDS011;46216;52.220;5.134;2022-08-01T05:39:58;9.95;;;5.82;;
60372;SDS011;46216;52.220;5.134;2022-08-01T05:42:23;9.48;;;6.28;;
60372;SDS011;46216;52.220;5.134;2022-08-01T05:44:49;10.68;;;6.13;;
60372;SDS011;46216;52.220;5.134;2022-08-01T05:47:15;9.80;;;6.63;;
60372;SDS011;46216;52.220;5.134;2022-08-01T05:49:41;14.50;;;6.88;;
60372;SDS011;46216;52.220;5.134;2022-08-01T05:52:06;13.77;;;6.88;;
60372;SDS011;46216;52.220;5.134;2022-08-01T05:54:32;13.98;;;6.97;;
60372;SDS011;46216;52.220;5.134;2022-08-01T05:56:57;12.95;;;6.50;;
60372;SDS011;46216;52.220;5.134;2022-08-01T05:59:26;12.48;;;6.38;;
60372;SDS011;46216;52.220;5.134;2022-08-01T06:01:52;14.27;;;6.88;;
60372;SDS011;46216;52.220;5.134;2022-08-01T06:04:17;17.80;;;6.40;;
60372;SDS011;46216;52.220;5.134;2022-08-01T06:06:42;20.23;;;6.93;;
60372;SDS011;46216;52.220;5.134;2022-08-01T06:09:07;17.90;;;6.40;;
60372;SDS011;46216;52.220;5.134;2022-08-01T06:11:33;21.38;;;6.75;;
60372;SDS011;46216;52.220;5.134;2022-08-01T06:13:58;22.13;;;6.28;;
60372;SDS011;46216;52.220;5.134;2022-08-01T06:16:23;20.17;;;6.32;;
60372;SDS011;46216;52.220;5.134;2022-08-01T06:18:49;19.88;;;6.57;;
60372;SDS011;46216;52.220;5.134;2022-08-01T06:21:14;23.50;;;6.03;;
60372;SDS011;46216;52.220;5.134;2022-08-01T06:23:39;19.15;;;5.70;;
60372;SDS011;46216;52.220;5.134;2022-08-01T06:26:06;17.05;;;6.05;;
60372;SDS011;46216;52.220;5.134;2022-08-01T06:28:31;16.50;;;6.10;;
60372;SDS011;46216;52.220;5.134;2022-08-01T06:30:57;17.38;;;5.38;;
60372;SDS011;46216;52.220;5.134;2022-08-01T06:33:24;18.73;;;5.00;;
60372;SDS011;46216;52.220;5.134;2022-08-01T06:35:49;16.30;;;5.07;;
60372;SDS011;46216;52.220;5.134;2022-08-01T06:38:14;18.50;;;4.80;;
60372;SDS011;46216;52.220;5.134;2022-08-01T06:40:40;14.52;;;4.88;;
60372;SDS011;46216;52.220;5.134;2022-08-01T06:43:05;15.10;;;5.07;;
60372;SDS011;46216;52.220;5.134;2022-08-01T06:45:31;19.13;;;4.80;;
60372;SDS011;46216;52.220;5.134;2022-08-01T06:47:56;20.85;;;4.90;;
60372;SDS011;46216;52.220;5.134;2022-08-01T06:50:21;16.75;;;4.57;;
60372;SDS011;46216;52.220;5.134;2022-08-01T06:52:46;16.98;;;4.65;;
60372;SDS011;46216;52.220;5.134;2022-08-01T06:55:12;19.02;;;4.25;;
60372;SDS011;46216;52.220;5.134;2022-08-01T06:57:44;16.48;;;4.50;;
60372;SDS011;46216;52.220;5.134;2022-08-01T07:00:17;17.70;;;4.38;;
60372;SDS011;46216;52.220;5.134;2022-08-01T07:02:49;17.13;;;4.60;;
60372;SDS011;46216;52.220;5.134;2022-08-01T07:05:15;21.50;;;4.80;;
60372;SDS011;46216;52.220;5.134;2022-08-01T07:07:40;18.10;;;4.22;;
60372;SDS011;46216;52.220;5.134;2022-08-01T07:10:06;18.17;;;4.63;;
60372;SDS011;46216;52.220;5.134;2022-08-01T07:12:33;19.30;;;4.13;;
60372;SDS011;46216;52.220;5.134;2022-08-01T07:15:01;18.02;;;4.03;;
60372;SDS011;46216;52.220;5.134;2022-08-01T07:17:27;13.88;;;3.67;;
60372;SDS011;46216;52.220;5.134;2022-08-01T07:19:53;20.20;;;4.30;;
60372;SDS011;46216;52.220;5.134;2022-08-01T07:22:19;15.52;;;4.07;;
60372;SDS011;46216;52.220;5.134;2022-08-01T07:24:45;15.32;;;3.70;;
60372;SDS011;46216;52.220;5.134;2022-08-01T07:27:10;15.00;;;3.47;;
60372;SDS011;46216;52.220;5.134;2022-08-01T07:29:36;13.43;;;3.45;;
60372;SDS011;46216;52.220;5.134;2022-08-01T07:32:01;23.75;;;3.83;;
60372;SDS011;46216;52.220;5.134;2022-08-01T07:34:26;13.15;;;3.70;;
60372;SDS011;46216;52.220;5.134;2022-08-01T07:36:52;13.23;;;3.50;;
60372;SDS011;46216;52.220;5.134;2022-08-01T07:39:17;10.65;;;3.30;;
60372;SDS011;46216;52.220;5.134;2022-08-01T07:41:43;14.52;;;3.50;;
60372;SDS011;46216;52.220;5.134;2022-08-01T07:44:08;12.82;;;3.40;;
60372;SDS011;46216;52.220;5.134;2022-08-01T07:46:33;13.40;;;3.03;;
60372;SDS011;46216;52.220;5.134;2022-08-01T07:48:59;12.98;;;3.70;;
60372;SDS011;46216;52.220;5.134;2022-08-01T07:51:24;11.82;;;3.50;;
60372;SDS011;46216;52.220;5.134;2022-08-01T07:53:50;11.07;;;3.10;;
60372;SDS011;46216;52.220;5.134;2022-08-01T07:56:15;12.23;;;3.13;;
60372;SDS011;46216;52.220;5.134;2022-08-01T07:58:40;12.25;;;3.60;;
60372;SDS011;46216;52.220;5.134;2022-08-01T08:01:06;15.68;;;3.22;;
60372;SDS011;46216;52.220;5.134;2022-08-01T08:03:31;14.75;;;3.38;;
60372;SDS011;46216;52.220;5.134;2022-08-01T08:05:56;14.20;;;3.22;;
60372;SDS011;46216;52.220;5.134;2022-08-01T08:08:22;11.70;;;2.75;;
60372;SDS011;46216;52.220;5.134;2022-08-01T08:10:48;11.35;;;3.10;;
60372;SDS011;46216;52.220;5.134;2022-08-01T08:13:13;13.57;;;3.30;;
60372;SDS011;46216;52.220;5.134;2022-08-01T08:15:38;10.65;;;2.88;;
60372;SDS011;46216;52.220;5.134;2022-08-01T08:18:04;14.20;;;2.88;;
60372;SDS011;46216;52.220;5.134;2022-08-01T08:20:30;16.08;;;3.30;;
60372;SDS011;46216;52.220;5.134;2022-08-01T08:22:55;12.27;;;3.15;;
60372;SDS011;46216;52.220;5.134;2022-08-01T08:25:23;9.80;;;2.50;;
60372;SDS011;46216;52.220;5.134;2022-08-01T08:27:49;9.75;;;2.92;;
60372;SDS011;46216;52.220;5.134;2022-08-01T08:30:14;13.82;;;3.00;;
60372;SDS011;46216;52.220;5.134;2022-08-01T08:32:40;13.60;;;2.90;;
60372;SDS011;46216;52.220;5.134;2022-08-01T08:35:05;11.70;;;2.80;;
60372;SDS011;46216;52.220;5.134;2022-08-01T08:37:32;9.82;;;2.60;;
60372;SDS011;46216;52.220;5.134;2022-08-01T08:40:03;10.75;;;2.42;;
60372;SDS011;46216;52.220;5.134;2022-08-01T08:42:29;13.20;;;2.60;;
60372;SDS011;46216;52.220;5.134;2022-08-01T08:44:54;8.75;;;2.55;;
60372;SDS011;46216;52.220;5.134;2022-08-01T08:47:20;9.27;;;2.55;;
60372;SDS011;46216;52.220;5.134;2022-08-01T08:49:47;8.32;;;2.35;;
60372;SDS011;46216;52.220;5.134;2022-08-01T08:52:15;14.45;;;2.92;;
60372;SDS011;46216;52.220;5.134;2022-08-01T08:54:42;10.75;;;2.63;;
60372;SDS011;46216;52.220;5.134;2022-08-01T08:57:07;15.13;;;2.95;;
60372;SDS011;46216;52.220;5.134;2022-08-01T08:59:36;8.95;;;2.60;;
60372;SDS011;46216;52.220;5.134;2022-08-01T09:02:02;8.68;;;2.58;;
60372;SDS011;46216;52.220;5.134;2022-08-01T09:04:29;11.38;;;2.78;;
60372;SDS011;46216;52.220;5.134;2022-08-01T09:06:55;11.70;;;2.70;;
60372;SDS011;46216;52.220;5.134;2022-08-01T09:09:20;13.13;;;2.50;;
60372;SDS011;46216;52.220;5.134;2022-08-01T09:11:46;12.88;;;2.95;;
60372;SDS011;46216;52.220;5.134;2022-08-01T09:14:21;11.32;;;2.70;;
60372;SDS011;46216;52.220;5.134;2022-08-01T09:22:30;10.90;;;3.10;;
60372;SDS011;46216;52.220;5.134;2022-08-01T09:24:58;12.50;;;2.47;;
60372;SDS011;46216;52.220;5.134;2022-08-01T09:27:30;7.93;;;2.50;;
60372;SDS011;46216;52.220;5.134;2022-08-01T09:30:05;7.97;;;2.50;;
60372;SDS011;46216;52.220;5.134;2022-08-01T09:32:33;10.73;;;2.50;;
60372;SDS011;46216;52.220;5.134;2022-08-01T09:38:11;11.80;;;3.00;;
60372;SDS011;46216;52.220;5.134;2022-08-01T09:40:49;11.50;;;2.60;;
60372;SDS011;46216;52.220;5.134;2022-08-01T09:43:18;12.63;;;2.65;;
60372;SDS011;46216;52.220;5.134;2022-08-01T09:45:44;10.07;;;2.55;;
60372;SDS011;46216;52.220;5.134;2022-08-01T09:48:09;8.77;;;2.30;;
60372;SDS011;46216;52.220;5.134;2022-08-01T09:50:48;12.63;;;2.58;;
60372;SDS011;46216;52.220;5.134;2022-08-01T09:53:14;11.80;;;2.75;;
60372;SDS011;46216;52.220;5.134;2022-08-01T09:55:41;15.10;;;2.88;;
60372;SDS011;46216;52.220;5.134;2022-08-01T09:58:07;12.43;;;2.70;;
60372;SDS011;46216;52.220;5.134;2022-08-01T10:00:33;7.93;;;1.92;;
60372;SDS011;46216;52.220;5.134;2022-08-01T10:02:59;8.52;;;2.10;;
60372;SDS011;46216;52.220;5.134;2022-08-01T10:05:43;12.25;;;2.60;;
60372;SDS011;46216;52.220;5.134;2022-08-01T10:08:09;8.15;;;2.53;;
60372;SDS011;46216;52.220;5.134;2022-08-01T10:10:35;12.65;;;2.55;;
60372;SDS011;46216;52.220;5.134;2022-08-01T10:13:00;8.23;;;2.03;;
60372;SDS011;46216;52.220;5.134;2022-08-01T10:15:27;10.35;;;2.50;;
60372;SDS011;46216;52.220;5.134;2022-08-01T10:17:53;8.75;;;2.50;;
60372;SDS011;46216;52.220;5.134;2022-08-01T10:20:20;10.27;;;2.17;;
60372;SDS011;46216;52.220;5.134;2022-08-01T10:22:48;7.93;;;2.10;;
60372;SDS011;46216;52.220;5.134;2022-08-01T10:25:16;8.27;;;2.20;;
60372;SDS011;46216;52.220;5.134;2022-08-01T10:27:44;10.27;;;2.35;;
60372;SDS011;46216;52.220;5.134;2022-08-01T10:30:13;8.73;;;2.38;;
60372;SDS011;46216;52.220;5.134;2022-08-01T10:32:39;11.88;;;2.53;;
60372;SDS011;46216;52.220;5.134;2022-08-01T10:35:07;6.30;;;1.80;;
60372;SDS011;46216;52.220;5.134;2022-08-01T10:37:34;13.75;;;2.50;;
60372;SDS011;46216;52.220;5.134;2022-08-01T10:40:00;10.70;;;2.30;;
60372;SDS011;46216;52.220;5.134;2022-08-01T10:42:26;9.07;;;2.15;;
60372;SDS011;46216;52.220;5.134;2022-08-01T10:44:52;7.30;;;2.10;;
60372;SDS011;46216;52.220;5.134;2022-08-01T10:47:38;6.05;;;1.90;;
60372;SDS011;46216;52.220;5.134;2022-08-01T10:50:15;8.30;;;1.70;;
60372;SDS011;46216;52.220;5.134;2022-08-01T10:58:34;4.78;;;1.70;;
60372;SDS011;46216;52.220;5.134;2022-08-01T11:06:27;8.68;;;1.70;;
60372;SDS011;46216;52.220;5.134;2022-08-01T11:09:03;6.57;;;1.70;;
60372;SDS011;46216;52.220;5.134;2022-08-01T11:11:30;6.88;;;1.85;;
60372;SDS011;46216;52.220;5.134;2022-08-01T11:16:38;6.13;;;1.42;;
60372;SDS011;46216;52.220;5.134;2022-08-01T11:19:05;6.53;;;1.70;;
60372;SDS011;46216;52.220;5.134;2022-08-01T11:29:40;6.97;;;1.75;;
60372;SDS011;46216;52.220;5.134;2022-08-01T11:32:27;5.30;;;1.55;;
60372;SDS011;46216;52.220;5.134;2022-08-01T11:34:53;3.97;;;1.23;;
60372;SDS011;46216;52.220;5.134;2022-08-01T11:37:22;4.53;;;1.45;;
60372;SDS011;46216;52.220;5.134;2022-08-01T11:45:52;3.80;;;1.40;;
60372;SDS011;46216;52.220;5.134;2022-08-01T11:48:20;5.53;;;1.30;;
60372;SDS011;46216;52.220;5.134;2022-08-01T11:50:47;4.00;;;1.40;;
60372;SDS011;46216;52.220;5.134;2022-08-01T11:53:14;4.95;;;1.70;;
60372;SDS011;46216;52.220;5.134;2022-08-01T11:55:44;4.05;;;1.40;;
60372;SDS011;46216;52.220;5.134;2022-08-01T11:58:12;3.45;;;1.50;;
60372;SDS011;46216;52.220;5.134;2022-08-01T12:00:37;3.92;;;1.60;;
60372;SDS011;46216;52.220;5.134;2022-08-01T12:03:04;5.07;;;1.35;;
60372;SDS011;46216;52.220;5.134;2022-08-01T12:05:31;2.88;;;1.27;;
60372;SDS011;46216;52.220;5.134;2022-08-01T12:07:59;5.65;;;1.52;;
60372;SDS011;46216;52.220;5.134;2022-08-01T12:10:29;5.32;;;1.50;;
60372;SDS011;46216;52.220;5.134;2022-08-01T12:13:01;4.88;;;1.75;;
60372;SDS011;46216;52.220;5.134;2022-08-01T12:15:35;4.32;;;1.30;;
60372;SDS011;46216;52.220;5.134;2022-08-01T12:18:03;6.03;;;1.48;;
60372;SDS011;46216;52.220;5.134;2022-08-01T12:20:31;3.60;;;1.40;;
60372;SDS011;46216;52.220;5.134;2022-08-01T12:23:00;7.10;;;1.50;;
60372;SDS011;46216;52.220;5.134;2022-08-01T12:25:33;5.60;;;1.70;;
60372;SDS011;46216;52.220;5.134;2022-08-01T12:28:03;4.82;;;1.50;;
60372;SDS011;46216;52.220;5.134;2022-08-01T12:30:30;6.65;;;1.38;;
60372;SDS011;46216;52.220;5.134;2022-08-01T12:32:57;5.35;;;1.58;;
60372;SDS011;46216;52.220;5.134;2022-08-01T12:35:23;3.63;;;1.40;;
60372;SDS011;46216;52.220;5.134;2022-08-01T12:37:58;2.58;;;1.20;;
60372;SDS011;46216;52.220;5.134;2022-08-01T12:40:35;4.75;;;1.48;;
60372;SDS011;46216;52.220;5.134;2022-08-01T12:43:06;6.65;;;1.70;;
60372;SDS011;46216;52.220;5.134;2022-08-01T12:45:37;4.88;;;1.55;;
60372;SDS011;46216;52.220;5.134;2022-08-01T12:48:13;5.35;;;1.40;;
60372;SDS011;46216;52.220;5.134;2022-08-01T12:50:44;5.43;;;1.67;;
60372;SDS011;46216;52.220;5.134;2022-08-01T12:53:12;4.63;;;1.27;;
60372;SDS011;46216;52.220;5.134;2022-08-01T12:58:12;6.53;;;1.40;;
60372;SDS011;46216;52.220;5.134;2022-08-01T13:00:39;5.03;;;1.55;;
60372;SDS011;46216;52.220;5.134;2022-08-01T13:03:13;7.82;;;1.50;;
60372;SDS011;46216;52.220;5.134;2022-08-01T13:05:47;4.38;;;1.45;;
60372;SDS011;46216;52.220;5.134;2022-08-01T13:08:17;3.55;;;1.23;;
60372;SDS011;46216;52.220;5.134;2022-08-01T13:10:44;5.75;;;1.65;;
60372;SDS011;46216;52.220;5.134;2022-08-01T13:13:10;4.28;;;1.50;;
60372;SDS011;46216;52.220;5.134;2022-08-01T13:15:37;5.18;;;1.33;;
60372;SDS011;46216;52.220;5.134;2022-08-01T13:18:21;4.78;;;1.50;;
60372;SDS011;46216;52.220;5.134;2022-08-01T13:21:06;4.50;;;1.60;;
60372;SDS011;46216;52.220;5.134;2022-08-01T13:23:40;2.95;;;1.45;;
60372;SDS011;46216;52.220;5.134;2022-08-01T13:26:45;3.72;;;1.27;;
60372;SDS011;46216;52.220;5.134;2022-08-01T13:29:11;3.28;;;1.40;;
60372;SDS011;46216;52.220;5.134;2022-08-01T13:31:39;4.13;;;1.40;;
60372;SDS011;46216;52.220;5.134;2022-08-01T13:34:06;2.50;;;1.20;;
60372;SDS011;46216;52.220;5.134;2022-08-01T13:36:32;4.50;;;1.50;;
60372;SDS011;46216;52.220;5.134;2022-08-01T13:38:58;4.13;;;1.20;;
60372;SDS011;46216;52.220;5.134;2022-08-01T13:41:42;3.25;;;1.30;;
60372;SDS011;46216;52.220;5.134;2022-08-01T13:44:09;3.83;;;1.30;;
60372;SDS011;46216;52.220;5.134;2022-08-01T13:46:36;6.85;;;1.58;;
60372;SDS011;46216;52.220;5.134;2022-08-01T13:49:03;4.32;;;1.50;;
60372;SDS011;46216;52.220;5.134;2022-08-01T13:51:29;5.13;;;1.65;;
60372;SDS011;46216;52.220;5.134;2022-08-01T13:53:54;4.68;;;1.60;;
60372;SDS011;46216;52.220;5.134;2022-08-01T13:56:19;4.03;;;1.70;;
60372;SDS011;46216;52.220;5.134;2022-08-01T13:58:45;4.65;;;1.50;;
60372;SDS011;46216;52.220;5.134;2022-08-01T14:01:11;6.40;;;1.60;;
60372;SDS011;46216;52.220;5.134;2022-08-01T14:03:36;4.93;;;1.50;;
60372;SDS011;46216;52.220;5.134;2022-08-01T14:06:02;3.63;;;1.45;;
60372;SDS011;46216;52.220;5.134;2022-08-01T14:08:27;6.05;;;1.70;;
60372;SDS011;46216;52.220;5.134;2022-08-01T14:10:53;6.22;;;1.77;;
60372;SDS011;46216;52.220;5.134;2022-08-01T14:13:21;6.13;;;1.48;;
60372;SDS011;46216;52.220;5.134;2022-08-01T14:15:47;5.70;;;1.40;;
60372;SDS011;46216;52.220;5.134;2022-08-01T14:18:12;4.03;;;1.60;;
60372;SDS011;46216;52.220;5.134;2022-08-01T14:20:38;4.25;;;1.40;;
60372;SDS011;46216;52.220;5.134;2022-08-01T14:23:04;5.88;;;1.50;;
60372;SDS011;46216;52.220;5.134;2022-08-01T14:25:29;5.53;;;1.45;;
60372;SDS011;46216;52.220;5.134;2022-08-01T14:27:54;7.22;;;1.70;;
60372;SDS011;46216;52.220;5.134;2022-08-01T14:30:20;3.22;;;1.45;;
60372;SDS011;46216;52.220;5.134;2022-08-01T14:32:45;4.82;;;1.52;;
60372;SDS011;46216;52.220;5.134;2022-08-01T14:35:13;7.88;;;1.58;;
60372;SDS011;46216;52.220;5.134;2022-08-01T14:37:38;4.85;;;1.55;;
60372;SDS011;46216;52.220;5.134;2022-08-01T14:40:03;6.75;;;1.50;;
60372;SDS011;46216;52.220;5.134;2022-08-01T14:42:33;5.78;;;1.40;;
60372;SDS011;46216;52.220;5.134;2022-08-01T14:45:02;3.78;;;1.67;;
60372;SDS011;46216;52.220;5.134;2022-08-01T14:47:29;4.32;;;1.40;;
60372;SDS011;46216;52.220;5.134;2022-08-01T14:49:54;3.28;;;1.20;;
60372;SDS011;46216;52.220;5.134;2022-08-01T14:52:19;4.47;;;1.40;;
60372;SDS011;46216;52.220;5.134;2022-08-01T14:54:45;3.33;;;1.20;;
60372;SDS011;46216;52.220;5.134;2022-08-01T14:57:10;6.25;;;1.50;;
60372;SDS011;46216;52.220;5.134;2022-08-01T14:59:35;5.57;;;1.60;;
60372;SDS011;46216;52.220;5.134;2022-08-01T15:02:01;6.15;;;1.55;;
60372;SDS011;46216;52.220;5.134;2022-08-01T15:04:26;4.95;;;1.50;;
60372;SDS011;46216;52.220;5.134;2022-08-01T15:06:52;4.07;;;1.10;;
60372;SDS011;46216;52.220;5.134;2022-08-01T15:09:18;4.20;;;1.33;;
60372;SDS011;46216;52.220;5.134;2022-08-01T15:11:43;3.50;;;1.20;;
60372;SDS011;46216;52.220;5.134;2022-08-01T15:14:09;4.55;;;1.38;;
60372;SDS011;46216;52.220;5.134;2022-08-01T15:16:53;3.92;;;1.40;;
60372;SDS011;46216;52.220;5.134;2022-08-01T15:19:18;5.28;;;1.55;;
60372;SDS011;46216;52.220;5.134;2022-08-01T15:21:43;6.38;;;1.63;;
60372;SDS011;46216;52.220;5.134;2022-08-01T15:24:09;5.32;;;1.42;;
60372;SDS011;46216;52.220;5.134;2022-08-01T15:26:34;5.88;;;1.70;;